sensor_id;sensor_type;location;lat;lon;timestamp;temperature;humidity
10278;DHT22;5184;51.376;7.148;2023-11-21T00:00:31;6.70;99.90
10278;DHT22;5184;51.376;7.148;2023-11-21T00:02:57;6.70;99.90
10278;DHT22;5184;51.376;7.148;2023-11-21T00:05:24;6.70;99.90
10278;DHT22;5184;51.376;7.148;2023-11-21T00:07:51;6.60;99.90
10278;DHT22;5184;51.376;7.148;2023-11-21T00:10:19;6.60;99.90
10278;DHT22;5184;51.376;7.148;2023-11-21T00:12:46;6.60;99.90
10278;DHT22;5184;51.376;7.148;2023-11-21T00:15:14;6.60;99.90
10278;DHT22;5184;51.376;7.148;2023-11-21T00:17:41;6.70;99.90
10278;DHT22;5184;51.376;7.148;2023-11-21T00:20:08;6.70;99.90
10278;DHT22;5184;51.376;7.148;2023-11-21T00:22:35;6.70;99.90
10278;DHT22;5184;51.376;7.148;2023-11-21T00:25:02;6.70;99.90
10278;DHT22;5184;51.376;7.148;2023-11-21T00:27:28;6.70;99.90
10278;DHT22;5184;51.376;7.148;2023-11-21T00:29:55;6.80;99.90
10278;DHT22;5184;51.376;7.148;2023-11-21T00:32:22;6.80;99.90
10278;DHT22;5184;51.376;7.148;2023-11-21T00:34:49;6.90;99.90
10278;DHT22;5184;51.376;7.148;2023-11-21T00:37:17;6.90;99.90
10278;DHT22;5184;51.376;7.148;2023-11-21T00:39:43;6.90;99.90
10278;DHT22;5184;51.376;7.148;2023-11-21T00:42:10;6.90;99.90
10278;DHT22;5184;51.376;7.148;2023-11-21T00:44:38;7.00;99.90
10278;DHT22;5184;51.376;7.148;2023-11-21T00:47:04;6.90;99.90
10278;DHT22;5184;51.376;7.148;2023-11-21T00:49:30;6.90;99.90
10278;DHT22;5184;51.376;7.148;2023-11-21T00:51:57;6.90;99.90
10278;DHT22;5184;51.376;7.148;2023-11-21T00:54:24;6.90;99.90
10278;DHT22;5184;51.376;7.148;2023-11-21T00:56:51;7.00;99.90
10278;DHT22;5184;51.376;7.148;2023-11-21T00:59:18;7.00;99.90
10278;DHT22;5184;51.376;7.148;2023-11-21T01:01:46;7.00;99.90
10278;DHT22;5184;51.376;7.148;2023-11-21T01:04:12;7.00;99.90
10278;DHT22;5184;51.376;7.148;2023-11-21T01:06:39;7.00;99.90
10278;DHT22;5184;51.376;7.148;2023-11-21T01:09:06;7.00;99.90
10278;DHT22;5184;51.376;7.148;2023-11-21T01:11:32;7.00;99.90
10278;DHT22;5184;51.376;7.148;2023-11-21T01:13:59;7.00;99.90
10278;DHT22;5184;51.376;7.148;2023-11-21T01:16:26;6.90;99.90
10278;DHT22;5184;51.376;7.148;2023-11-21T01:18:53;6.90;99.90
10278;DHT22;5184;51.376;7.148;2023-11-21T01:21:21;6.90;99.90
10278;DHT22;5184;51.376;7.148;2023-11-21T01:23:47;6.90;99.90
10278;DHT22;5184;51.376;7.148;2023-11-21T01:26:14;6.90;99.90
10278;DHT22;5184;51.376;7.148;2023-11-21T01:28:41;6.90;99.90
10278;DHT22;5184;51.376;7.148;2023-11-21T01:31:08;6.90;99.90
10278;DHT22;5184;51.376;7.148;2023-11-21T01:33:35;6.90;99.90
10278;DHT22;5184;51.376;7.148;2023-11-21T01:36:02;6.90;99.90
10278;DHT22;5184;51.376;7.148;2023-11-21T01:38:29;6.90;99.90
10278;DHT22;5184;51.376;7.148;2023-11-21T01:40:56;6.90;99.90
10278;DHT22;5184;51.376;7.148;2023-11-21T01:43:23;6.90;99.90
10278;DHT22;5184;51.376;7.148;2023-11-21T01:45:50;6.90;99.90
10278;DHT22;5184;51.376;7.148;2023-11-21T01:48:18;7.00;99.90
10278;DHT22;5184;51.376;7.148;2023-11-21T01:50:44;6.90;99.90
10278;DHT22;5184;51.376;7.148;2023-11-21T01:53:12;7.00;99.90
10278;DHT22;5184;51.376;7.148;2023-11-21T01:55:38;7.00;99.90
10278;DHT22;5184;51.376;7.148;2023-11-21T01:58:05;7.00;99.90
10278;DHT22;5184;51.376;7.148;2023-11-21T02:00:32;7.00;99.90
10278;DHT22;5184;51.376;7.148;2023-11-21T02:02:58;7.00;99.90
10278;DHT22;5184;51.376;7.148;2023-11-21T02:05:25;7.00;99.90
10278;DHT22;5184;51.376;7.148;2023-11-21T02:07:52;6.90;99.90
10278;DHT22;5184;51.376;7.148;2023-11-21T02:10:19;7.00;99.90
10278;DHT22;5184;51.376;7.148;2023-11-21T02:12:49;6.90;99.90
10278;DHT22;5184;51.376;7.148;2023-11-21T02:15:17;7.00;99.90
10278;DHT22;5184;51.376;7.148;2023-11-21T02:17:44;7.00;99.90
10278;DHT22;5184;51.376;7.148;2023-11-21T02:20:11;7.00;99.90
10278;DHT22;5184;51.376;7.148;2023-11-21T02:22:38;7.00;99.90
10278;DHT22;5184;51.376;7.148;2023-11-21T02:25:06;7.00;99.90
10278;DHT22;5184;51.376;7.148;2023-11-21T02:27:33;7.00;99.90
10278;DHT22;5184;51.376;7.148;2023-11-21T02:29:59;7.00;99.90
10278;DHT22;5184;51.376;7.148;2023-11-21T02:32:26;7.00;99.90
10278;DHT22;5184;51.376;7.148;2023-11-21T02:34:53;7.00;99.90
10278;DHT22;5184;51.376;7.148;2023-11-21T02:37:20;7.00;99.90
10278;DHT22;5184;51.376;7.148;2023-11-21T02:39:47;7.00;99.90
10278;DHT22;5184;51.376;7.148;2023-11-21T02:42:14;7.00;99.90
10278;DHT22;5184;51.376;7.148;2023-11-21T02:44:40;7.00;99.90
10278;DHT22;5184;51.376;7.148;2023-11-21T02:47:07;7.00;99.90
10278;DHT22;5184;51.376;7.148;2023-11-21T02:49:33;7.00;99.90
10278;DHT22;5184;51.376;7.148;2023-11-21T02:52:01;7.00;99.90
10278;DHT22;5184;51.376;7.148;2023-11-21T02:54:28;6.90;99.90
10278;DHT22;5184;51.376;7.148;2023-11-21T02:56:55;6.90;99.90
10278;DHT22;5184;51.376;7.148;2023-11-21T02:59:23;6.90;99.90
10278;DHT22;5184;51.376;7.148;2023-11-21T03:01:50;7.00;99.90
10278;DHT22;5184;51.376;7.148;2023-11-21T03:04:17;6.90;99.90
10278;DHT22;5184;51.376;7.148;2023-11-21T03:06:44;7.00;99.90
10278;DHT22;5184;51.376;7.148;2023-11-21T03:09:10;7.00;99.90
10278;DHT22;5184;51.376;7.148;2023-11-21T03:11:38;7.00;99.90
10278;DHT22;5184;51.376;7.148;2023-11-21T03:14:05;7.00;99.90
10278;DHT22;5184;51.376;7.148;2023-11-21T03:16:32;7.00;99.90
10278;DHT22;5184;51.376;7.148;2023-11-21T03:18:59;7.00;99.90
10278;DHT22;5184;51.376;7.148;2023-11-21T03:21:26;7.00;99.90
10278;DHT22;5184;51.376;7.148;2023-11-21T03:23:53;7.00;99.90
10278;DHT22;5184;51.376;7.148;2023-11-21T03:26:20;7.00;99.90
10278;DHT22;5184;51.376;7.148;2023-11-21T03:28:46;7.00;99.90
10278;DHT22;5184;51.376;7.148;2023-11-21T03:31:15;7.00;99.90
10278;DHT22;5184;51.376;7.148;2023-11-21T03:33:41;7.00;99.90
10278;DHT22;5184;51.376;7.148;2023-11-21T03:36:09;6.90;99.90
10278;DHT22;5184;51.376;7.148;2023-11-21T03:38:35;6.90;99.90
10278;DHT22;5184;51.376;7.148;2023-11-21T03:41:03;6.90;99.90
10278;DHT22;5184;51.376;7.148;2023-11-21T03:43:29;6.90;99.90
10278;DHT22;5184;51.376;7.148;2023-11-21T03:45:56;6.90;99.90
10278;DHT22;5184;51.376;7.148;2023-11-21T03:48:23;7.00;99.90
10278;DHT22;5184;51.376;7.148;2023-11-21T03:50:50;7.00;99.90
10278;DHT22;5184;51.376;7.148;2023-11-21T03:53:17;7.00;99.90
10278;DHT22;5184;51.376;7.148;2023-11-21T03:55:45;7.00;99.90
10278;DHT22;5184;51.376;7.148;2023-11-21T03:58:12;7.00;99.90
10278;DHT22;5184;51.376;7.148;2023-11-21T04:00:39;7.00;99.90
10278;DHT22;5184;51.376;7.148;2023-11-21T04:03:06;6.90;99.90
10278;DHT22;5184;51.376;7.148;2023-11-21T04:05:33;6.90;99.90
10278;DHT22;5184;51.376;7.148;2023-11-21T04:07:59;6.90;99.90
10278;DHT22;5184;51.376;7.148;2023-11-21T04:10:26;7.00;99.90
10278;DHT22;5184;51.376;7.148;2023-11-21T04:12:54;7.00;99.90
10278;DHT22;5184;51.376;7.148;2023-11-21T04:15:21;7.00;99.90
10278;DHT22;5184;51.376;7.148;2023-11-21T04:17:48;7.00;99.90
10278;DHT22;5184;51.376;7.148;2023-11-21T04:20:14;7.00;99.90
10278;DHT22;5184;51.376;7.148;2023-11-21T04:22:44;7.00;99.90
10278;DHT22;5184;51.376;7.148;2023-11-21T04:25:11;7.00;99.90
10278;DHT22;5184;51.376;7.148;2023-11-21T04:27:39;7.00;99.90
10278;DHT22;5184;51.376;7.148;2023-11-21T04:30:05;7.00;99.90
10278;DHT22;5184;51.376;7.148;2023-11-21T04:32:32;6.90;99.90
10278;DHT22;5184;51.376;7.148;2023-11-21T04:34:59;6.90;99.90
10278;DHT22;5184;51.376;7.148;2023-11-21T04:37:26;6.80;99.90
10278;DHT22;5184;51.376;7.148;2023-11-21T04:39:53;6.80;99.90
10278;DHT22;5184;51.376;7.148;2023-11-21T04:42:21;6.80;99.90
10278;DHT22;5184;51.376;7.148;2023-11-21T04:44:48;6.70;99.90
10278;DHT22;5184;51.376;7.148;2023-11-21T04:47:15;6.70;99.90
10278;DHT22;5184;51.376;7.148;2023-11-21T04:49:42;6.70;99.90
10278;DHT22;5184;51.376;7.148;2023-11-21T04:52:10;6.70;99.90
10278;DHT22;5184;51.376;7.148;2023-11-21T04:54:36;6.70;99.90
10278;DHT22;5184;51.376;7.148;2023-11-21T04:57:03;6.70;99.90
10278;DHT22;5184;51.376;7.148;2023-11-21T04:59:30;6.70;99.90
10278;DHT22;5184;51.376;7.148;2023-11-21T05:01:56;6.70;99.90
10278;DHT22;5184;51.376;7.148;2023-11-21T05:04:23;6.60;99.90
10278;DHT22;5184;51.376;7.148;2023-11-21T05:06:49;6.60;99.90
10278;DHT22;5184;51.376;7.148;2023-11-21T05:09:17;6.50;99.90
10278;DHT22;5184;51.376;7.148;2023-11-21T05:11:44;6.50;99.90
10278;DHT22;5184;51.376;7.148;2023-11-21T05:14:11;6.50;99.90
10278;DHT22;5184;51.376;7.148;2023-11-21T05:16:37;6.50;99.90
10278;DHT22;5184;51.376;7.148;2023-11-21T05:19:04;6.50;99.90
10278;DHT22;5184;51.376;7.148;2023-11-21T05:21:31;6.50;99.90
10278;DHT22;5184;51.376;7.148;2023-11-21T05:23:58;6.60;99.90
10278;DHT22;5184;51.376;7.148;2023-11-21T05:26:25;6.60;99.90
10278;DHT22;5184;51.376;7.148;2023-11-21T05:28:53;6.50;99.90
10278;DHT22;5184;51.376;7.148;2023-11-21T05:31:19;6.80;99.90
10278;DHT22;5184;51.376;7.148;2023-11-21T05:33:46;6.50;99.90
10278;DHT22;5184;51.376;7.148;2023-11-21T05:36:13;6.40;99.90
10278;DHT22;5184;51.376;7.148;2023-11-21T05:38:39;6.50;99.90
10278;DHT22;5184;51.376;7.148;2023-11-21T05:41:06;6.40;99.90
10278;DHT22;5184;51.376;7.148;2023-11-21T05:43:32;6.40;99.90
10278;DHT22;5184;51.376;7.148;2023-11-21T05:45:59;6.40;99.90
10278;DHT22;5184;51.376;7.148;2023-11-21T05:48:26;6.40;99.90
10278;DHT22;5184;51.376;7.148;2023-11-21T05:50:54;6.40;99.90
10278;DHT22;5184;51.376;7.148;2023-11-21T05:53:21;6.50;99.90
10278;DHT22;5184;51.376;7.148;2023-11-21T05:55:48;6.50;99.90
10278;DHT22;5184;51.376;7.148;2023-11-21T05:58:15;6.50;99.90
10278;DHT22;5184;51.376;7.148;2023-11-21T06:00:42;6.50;99.90
10278;DHT22;5184;51.376;7.148;2023-11-21T06:03:08;6.60;99.90
10278;DHT22;5184;51.376;7.148;2023-11-21T06:05:36;6.60;99.90
10278;DHT22;5184;51.376;7.148;2023-11-21T06:08:03;6.70;99.90
10278;DHT22;5184;51.376;7.148;2023-11-21T06:10:30;6.70;99.90
10278;DHT22;5184;51.376;7.148;2023-11-21T06:12:56;6.70;99.90
10278;DHT22;5184;51.376;7.148;2023-11-21T06:15:24;6.70;99.90
10278;DHT22;5184;51.376;7.148;2023-11-21T06:17:51;6.80;99.90
10278;DHT22;5184;51.376;7.148;2023-11-21T06:20:19;6.70;99.90
10278;DHT22;5184;51.376;7.148;2023-11-21T06:22:46;6.80;99.90
10278;DHT22;5184;51.376;7.148;2023-11-21T06:25:12;6.80;99.90
10278;DHT22;5184;51.376;7.148;2023-11-21T06:27:39;6.80;99.90
10278;DHT22;5184;51.376;7.148;2023-11-21T06:56:44;7.00;99.90
10278;DHT22;5184;51.376;7.148;2023-11-21T06:59:10;7.00;99.90
10278;DHT22;5184;51.376;7.148;2023-11-21T07:01:37;7.00;99.90
10278;DHT22;5184;51.376;7.148;2023-11-21T07:04:05;7.10;99.90
10278;DHT22;5184;51.376;7.148;2023-11-21T07:06:31;7.10;99.90
10278;DHT22;5184;51.376;7.148;2023-11-21T07:08:57;7.10;99.90
10278;DHT22;5184;51.376;7.148;2023-11-21T07:11:24;7.10;99.90
10278;DHT22;5184;51.376;7.148;2023-11-21T07:13:51;7.10;99.90
10278;DHT22;5184;51.376;7.148;2023-11-21T07:16:18;7.20;99.90
10278;DHT22;5184;51.376;7.148;2023-11-21T07:18:45;7.20;99.90
10278;DHT22;5184;51.376;7.148;2023-11-21T07:21:13;7.20;99.90
10278;DHT22;5184;51.376;7.148;2023-11-21T07:23:39;7.10;99.90
10278;DHT22;5184;51.376;7.148;2023-11-21T07:26:07;7.10;99.90
10278;DHT22;5184;51.376;7.148;2023-11-21T07:28:33;7.10;99.90
10278;DHT22;5184;51.376;7.148;2023-11-21T07:31:00;7.10;99.90
10278;DHT22;5184;51.376;7.148;2023-11-21T07:33:27;7.10;99.90
10278;DHT22;5184;51.376;7.148;2023-11-21T07:35:53;7.20;99.90
10278;DHT22;5184;51.376;7.148;2023-11-21T07:38:20;7.20;99.90
10278;DHT22;5184;51.376;7.148;2023-11-21T07:40:47;7.30;99.90
10278;DHT22;5184;51.376;7.148;2023-11-21T07:43:14;7.30;99.90
10278;DHT22;5184;51.376;7.148;2023-11-21T07:45:40;7.30;99.90
10278;DHT22;5184;51.376;7.148;2023-11-21T07:48:07;7.30;99.90
10278;DHT22;5184;51.376;7.148;2023-11-21T07:50:34;7.30;99.90
10278;DHT22;5184;51.376;7.148;2023-11-21T07:53:02;7.30;99.90
10278;DHT22;5184;51.376;7.148;2023-11-21T07:55:29;7.30;99.90
10278;DHT22;5184;51.376;7.148;2023-11-21T07:57:56;7.30;99.90
10278;DHT22;5184;51.376;7.148;2023-11-21T08:00:23;7.40;99.90
10278;DHT22;5184;51.376;7.148;2023-11-21T08:02:49;7.30;99.90
10278;DHT22;5184;51.376;7.148;2023-11-21T08:05:16;7.40;99.90
10278;DHT22;5184;51.376;7.148;2023-11-21T08:07:43;7.40;99.90
10278;DHT22;5184;51.376;7.148;2023-11-21T08:10:10;7.50;99.90
10278;DHT22;5184;51.376;7.148;2023-11-21T08:12:37;7.50;99.90
10278;DHT22;5184;51.376;7.148;2023-11-21T08:15:04;7.60;99.90
10278;DHT22;5184;51.376;7.148;2023-11-21T08:17:31;7.60;99.90
10278;DHT22;5184;51.376;7.148;2023-11-21T08:19:58;7.70;99.90
10278;DHT22;5184;51.376;7.148;2023-11-21T08:22:24;7.80;99.90
10278;DHT22;5184;51.376;7.148;2023-11-21T08:24:52;7.90;99.90
10278;DHT22;5184;51.376;7.148;2023-11-21T08:27:18;7.90;99.90
10278;DHT22;5184;51.376;7.148;2023-11-21T08:29:46;7.90;99.90
10278;DHT22;5184;51.376;7.148;2023-11-21T08:32:13;8.00;99.90
10278;DHT22;5184;51.376;7.148;2023-11-21T08:34:40;8.00;99.90
10278;DHT22;5184;51.376;7.148;2023-11-21T08:37:06;8.00;99.90
10278;DHT22;5184;51.376;7.148;2023-11-21T08:39:33;8.00;99.90
10278;DHT22;5184;51.376;7.148;2023-11-21T08:41:59;8.10;99.90
10278;DHT22;5184;51.376;7.148;2023-11-21T08:44:26;8.10;99.90
10278;DHT22;5184;51.376;7.148;2023-11-21T08:46:53;8.10;99.90
10278;DHT22;5184;51.376;7.148;2023-11-21T08:49:20;8.10;99.90
10278;DHT22;5184;51.376;7.148;2023-11-21T08:51:47;8.10;99.90
10278;DHT22;5184;51.376;7.148;2023-11-21T08:54:13;8.20;99.90
10278;DHT22;5184;51.376;7.148;2023-11-21T08:56:40;8.40;99.90
10278;DHT22;5184;51.376;7.148;2023-11-21T08:59:08;8.40;99.90
10278;DHT22;5184;51.376;7.148;2023-11-21T09:01:35;8.40;99.90
10278;DHT22;5184;51.376;7.148;2023-11-21T09:04:03;8.40;99.90
10278;DHT22;5184;51.376;7.148;2023-11-21T09:06:29;8.40;99.90
10278;DHT22;5184;51.376;7.148;2023-11-21T09:08:56;8.50;99.90
10278;DHT22;5184;51.376;7.148;2023-11-21T09:11:22;8.50;99.90
10278;DHT22;5184;51.376;7.148;2023-11-21T09:13:50;8.60;99.90
10278;DHT22;5184;51.376;7.148;2023-11-21T09:16:17;8.50;99.90
10278;DHT22;5184;51.376;7.148;2023-11-21T09:18:45;8.60;99.90
10278;DHT22;5184;51.376;7.148;2023-11-21T09:21:12;8.60;99.90
10278;DHT22;5184;51.376;7.148;2023-11-21T09:23:39;8.60;99.90
10278;DHT22;5184;51.376;7.148;2023-11-21T09:26:06;8.60;99.90
10278;DHT22;5184;51.376;7.148;2023-11-21T09:28:32;8.60;99.90
10278;DHT22;5184;51.376;7.148;2023-11-21T09:30:59;8.60;99.90
10278;DHT22;5184;51.376;7.148;2023-11-21T09:33:26;8.60;99.90
10278;DHT22;5184;51.376;7.148;2023-11-21T09:35:54;8.60;99.90
10278;DHT22;5184;51.376;7.148;2023-11-21T09:38:21;8.60;99.90
10278;DHT22;5184;51.376;7.148;2023-11-21T09:40:48;8.60;99.90
10278;DHT22;5184;51.376;7.148;2023-11-21T09:43:16;8.60;99.90
10278;DHT22;5184;51.376;7.148;2023-11-21T09:45:46;8.60;99.90
10278;DHT22;5184;51.376;7.148;2023-11-21T09:48:12;8.60;99.90
10278;DHT22;5184;51.376;7.148;2023-11-21T09:50:41;8.60;99.90
10278;DHT22;5184;51.376;7.148;2023-11-21T09:53:20;8.70;99.90
10278;DHT22;5184;51.376;7.148;2023-11-21T09:55:47;8.70;99.90
10278;DHT22;5184;51.376;7.148;2023-11-21T09:58:14;8.70;99.90
10278;DHT22;5184;51.376;7.148;2023-11-21T10:00:44;8.70;99.90
10278;DHT22;5184;51.376;7.148;2023-11-21T10:03:10;8.60;99.90
10278;DHT22;5184;51.376;7.148;2023-11-21T10:05:36;8.70;99.90
10278;DHT22;5184;51.376;7.148;2023-11-21T10:08:07;8.70;99.90
10278;DHT22;5184;51.376;7.148;2023-11-21T10:10:31;8.70;99.90
10278;DHT22;5184;51.376;7.148;2023-11-21T10:12:58;8.70;99.90
10278;DHT22;5184;51.376;7.148;2023-11-21T10:15:24;8.80;99.90
10278;DHT22;5184;51.376;7.148;2023-11-21T10:17:52;8.80;99.90
10278;DHT22;5184;51.376;7.148;2023-11-21T10:20:19;8.80;99.90
10278;DHT22;5184;51.376;7.148;2023-11-21T10:22:46;8.90;99.90
10278;DHT22;5184;51.376;7.148;2023-11-21T10:25:13;9.00;99.90
10278;DHT22;5184;51.376;7.148;2023-11-21T10:27:40;9.00;99.90
10278;DHT22;5184;51.376;7.148;2023-11-21T10:30:08;9.10;99.90
10278;DHT22;5184;51.376;7.148;2023-11-21T10:32:34;9.10;99.90
10278;DHT22;5184;51.376;7.148;2023-11-21T10:35:02;9.00;99.90
10278;DHT22;5184;51.376;7.148;2023-11-21T10:37:28;9.00;99.90
10278;DHT22;5184;51.376;7.148;2023-11-21T10:39:58;9.00;99.90
10278;DHT22;5184;51.376;7.148;2023-11-21T10:42:23;9.10;99.90
10278;DHT22;5184;51.376;7.148;2023-11-21T10:44:50;9.10;99.90
10278;DHT22;5184;51.376;7.148;2023-11-21T10:47:17;9.30;99.90
10278;DHT22;5184;51.376;7.148;2023-11-21T10:49:48;9.40;99.90
10278;DHT22;5184;51.376;7.148;2023-11-21T10:52:12;9.40;99.90
10278;DHT22;5184;51.376;7.148;2023-11-21T10:54:39;9.40;99.90
10278;DHT22;5184;51.376;7.148;2023-11-21T10:57:07;9.50;99.90
10278;DHT22;5184;51.376;7.148;2023-11-21T10:59:33;9.40;99.90
10278;DHT22;5184;51.376;7.148;2023-11-21T11:02:00;9.40;99.90
10278;DHT22;5184;51.376;7.148;2023-11-21T11:04:27;9.40;99.90
10278;DHT22;5184;51.376;7.148;2023-11-21T11:06:55;9.50;99.90
10278;DHT22;5184;51.376;7.148;2023-11-21T11:09:21;9.60;99.90
10278;DHT22;5184;51.376;7.148;2023-11-21T11:11:47;9.80;99.90
10278;DHT22;5184;51.376;7.148;2023-11-21T11:14:14;9.90;99.90
10278;DHT22;5184;51.376;7.148;2023-11-21T11:16:41;9.90;99.90
10278;DHT22;5184;51.376;7.148;2023-11-21T11:19:08;9.90;99.90
10278;DHT22;5184;51.376;7.148;2023-11-21T11:22:19;10.00;99.90
10278;DHT22;5184;51.376;7.148;2023-11-21T11:24:33;10.00;99.90
10278;DHT22;5184;51.376;7.148;2023-11-21T11:27:00;10.10;99.90
10278;DHT22;5184;51.376;7.148;2023-11-21T11:32:26;10.10;99.90
10278;DHT22;5184;51.376;7.148;2023-11-21T11:35:08;10.10;99.90
10278;DHT22;5184;51.376;7.148;2023-11-21T11:37:36;10.10;99.90
10278;DHT22;5184;51.376;7.148;2023-11-21T11:40:05;10.20;99.90
10278;DHT22;5184;51.376;7.148;2023-11-21T11:42:30;10.20;99.90
10278;DHT22;5184;51.376;7.148;2023-11-21T11:44:56;10.20;99.90
10278;DHT22;5184;51.376;7.148;2023-11-21T11:47:27;10.20;99.90
10278;DHT22;5184;51.376;7.148;2023-11-21T11:50:00;10.00;99.90
10278;DHT22;5184;51.376;7.148;2023-11-21T11:52:39;10.00;99.90
10278;DHT22;5184;51.376;7.148;2023-11-21T11:55:07;10.00;99.90
10278;DHT22;5184;51.376;7.148;2023-11-21T11:57:34;9.90;99.90
10278;DHT22;5184;51.376;7.148;2023-11-21T12:00:08;9.90;99.90
10278;DHT22;5184;51.376;7.148;2023-11-21T12:02:35;9.80;99.90
10278;DHT22;5184;51.376;7.148;2023-11-21T12:05:02;9.70;99.90
10278;DHT22;5184;51.376;7.148;2023-11-21T12:07:38;9.80;99.90
10278;DHT22;5184;51.376;7.148;2023-11-21T12:12:29;9.80;99.90
10278;DHT22;5184;51.376;7.148;2023-11-21T12:14:56;9.90;99.90
10278;DHT22;5184;51.376;7.148;2023-11-21T12:17:22;9.80;99.90
10278;DHT22;5184;51.376;7.148;2023-11-21T12:19:49;9.70;99.90
10278;DHT22;5184;51.376;7.148;2023-11-21T12:22:16;9.70;99.90
10278;DHT22;5184;51.376;7.148;2023-11-21T12:24:44;9.60;99.90
10278;DHT22;5184;51.376;7.148;2023-11-21T12:27:11;9.70;99.90
10278;DHT22;5184;51.376;7.148;2023-11-21T12:29:38;9.60;99.90
10278;DHT22;5184;51.376;7.148;2023-11-21T12:32:04;9.70;99.90
10278;DHT22;5184;51.376;7.148;2023-11-21T12:34:31;9.70;99.90
10278;DHT22;5184;51.376;7.148;2023-11-21T12:36:58;9.70;99.90
10278;DHT22;5184;51.376;7.148;2023-11-21T12:39:25;9.80;99.90
10278;DHT22;5184;51.376;7.148;2023-11-21T12:41:52;9.80;99.90
10278;DHT22;5184;51.376;7.148;2023-11-21T12:44:19;9.80;99.90
10278;DHT22;5184;51.376;7.148;2023-11-21T12:46:47;9.80;99.90
10278;DHT22;5184;51.376;7.148;2023-11-21T12:49:14;9.90;99.90
10278;DHT22;5184;51.376;7.148;2023-11-21T12:51:41;9.90;99.90
10278;DHT22;5184;51.376;7.148;2023-11-21T12:54:08;9.90;99.90
10278;DHT22;5184;51.376;7.148;2023-11-21T12:56:37;9.90;99.90
10278;DHT22;5184;51.376;7.148;2023-11-21T12:59:01;9.80;99.90
10278;DHT22;5184;51.376;7.148;2023-11-21T13:01:27;9.80;99.90
10278;DHT22;5184;51.376;7.148;2023-11-21T13:03:56;9.70;99.90
10278;DHT22;5184;51.376;7.148;2023-11-21T13:06:21;9.70;99.90
10278;DHT22;5184;51.376;7.148;2023-11-21T13:08:48;9.60;99.90
10278;DHT22;5184;51.376;7.148;2023-11-21T13:11:14;9.60;99.90
10278;DHT22;5184;51.376;7.148;2023-11-21T13:13:41;9.60;99.90
10278;DHT22;5184;51.376;7.148;2023-11-21T13:16:09;9.50;99.90
10278;DHT22;5184;51.376;7.148;2023-11-21T13:18:36;9.50;99.90
10278;DHT22;5184;51.376;7.148;2023-11-21T13:21:03;9.50;99.90
10278;DHT22;5184;51.376;7.148;2023-11-21T13:23:34;9.40;99.90
10278;DHT22;5184;51.376;7.148;2023-11-21T13:25:58;9.40;99.90
10278;DHT22;5184;51.376;7.148;2023-11-21T13:28:25;9.30;99.90
10278;DHT22;5184;51.376;7.148;2023-11-21T13:30:52;9.30;99.90
10278;DHT22;5184;51.376;7.148;2023-11-21T13:33:18;9.30;99.90
10278;DHT22;5184;51.376;7.148;2023-11-21T13:35:45;9.30;99.90
10278;DHT22;5184;51.376;7.148;2023-11-21T13:38:13;9.30;99.90
10278;DHT22;5184;51.376;7.148;2023-11-21T13:40:39;9.20;99.90
10278;DHT22;5184;51.376;7.148;2023-11-21T13:43:09;9.20;99.90
10278;DHT22;5184;51.376;7.148;2023-11-21T13:45:37;9.10;99.90
10278;DHT22;5184;51.376;7.148;2023-11-21T13:48:04;9.10;99.90
10278;DHT22;5184;51.376;7.148;2023-11-21T13:50:31;9.10;99.90
10278;DHT22;5184;51.376;7.148;2023-11-21T13:53:00;9.10;99.90
10278;DHT22;5184;51.376;7.148;2023-11-21T13:55:30;9.10;99.90
10278;DHT22;5184;51.376;7.148;2023-11-21T13:57:57;9.10;99.90
10278;DHT22;5184;51.376;7.148;2023-11-21T14:00:24;9.10;99.90
10278;DHT22;5184;51.376;7.148;2023-11-21T14:02:56;9.00;99.90
10278;DHT22;5184;51.376;7.148;2023-11-21T14:05:24;9.10;99.90
10278;DHT22;5184;51.376;7.148;2023-11-21T14:07:51;9.10;99.90
10278;DHT22;5184;51.376;7.148;2023-11-21T14:10:18;9.10;99.90
10278;DHT22;5184;51.376;7.148;2023-11-21T14:12:44;9.10;99.90
10278;DHT22;5184;51.376;7.148;2023-11-21T14:15:11;9.10;99.90
10278;DHT22;5184;51.376;7.148;2023-11-21T14:17:38;9.00;99.90
10278;DHT22;5184;51.376;7.148;2023-11-21T14:20:06;9.00;99.90
10278;DHT22;5184;51.376;7.148;2023-11-21T14:22:33;9.00;99.90
10278;DHT22;5184;51.376;7.148;2023-11-21T14:24:59;9.00;99.90
10278;DHT22;5184;51.376;7.148;2023-11-21T14:27:26;9.00;99.90
10278;DHT22;5184;51.376;7.148;2023-11-21T14:29:53;9.00;99.90
10278;DHT22;5184;51.376;7.148;2023-11-21T14:32:19;9.00;99.90
10278;DHT22;5184;51.376;7.148;2023-11-21T14:34:46;9.00;99.90
10278;DHT22;5184;51.376;7.148;2023-11-21T14:37:13;9.20;99.90
10278;DHT22;5184;51.376;7.148;2023-11-21T14:39:40;9.40;99.90
10278;DHT22;5184;51.376;7.148;2023-11-21T14:42:07;9.30;99.90
10278;DHT22;5184;51.376;7.148;2023-11-21T14:44:35;9.30;99.90
10278;DHT22;5184;51.376;7.148;2023-11-21T14:47:02;9.30;99.90
10278;DHT22;5184;51.376;7.148;2023-11-21T14:49:29;9.20;99.90
10278;DHT22;5184;51.376;7.148;2023-11-21T14:51:55;9.20;99.90
10278;DHT22;5184;51.376;7.148;2023-11-21T14:54:28;9.10;99.90
10278;DHT22;5184;51.376;7.148;2023-11-21T14:57:00;9.00;99.90
10278;DHT22;5184;51.376;7.148;2023-11-21T14:59:27;8.90;99.90
10278;DHT22;5184;51.376;7.148;2023-11-21T15:01:55;8.90;99.90
10278;DHT22;5184;51.376;7.148;2023-11-21T15:04:22;9.00;99.90
10278;DHT22;5184;51.376;7.148;2023-11-21T15:06:49;9.00;99.90
10278;DHT22;5184;51.376;7.148;2023-11-21T15:09:17;8.90;99.90
10278;DHT22;5184;51.376;7.148;2023-11-21T15:11:54;8.90;99.90
10278;DHT22;5184;51.376;7.148;2023-11-21T15:14:21;8.90;99.90
10278;DHT22;5184;51.376;7.148;2023-11-21T15:16:47;8.90;99.90
10278;DHT22;5184;51.376;7.148;2023-11-21T15:19:15;8.90;99.90
10278;DHT22;5184;51.376;7.148;2023-11-21T15:21:42;8.90;99.90
10278;DHT22;5184;51.376;7.148;2023-11-21T15:24:10;8.90;99.90
10278;DHT22;5184;51.376;7.148;2023-11-21T15:26:38;9.10;99.90
10278;DHT22;5184;51.376;7.148;2023-11-21T15:29:04;9.10;99.90
10278;DHT22;5184;51.376;7.148;2023-11-21T15:31:31;9.10;99.90
10278;DHT22;5184;51.376;7.148;2023-11-21T15:33:57;8.90;99.90
10278;DHT22;5184;51.376;7.148;2023-11-21T15:36:24;8.80;99.90
10278;DHT22;5184;51.376;7.148;2023-11-21T15:38:51;8.70;99.90
10278;DHT22;5184;51.376;7.148;2023-11-21T15:41:17;8.70;99.90
10278;DHT22;5184;51.376;7.148;2023-11-21T15:43:44;8.70;99.90
10278;DHT22;5184;51.376;7.148;2023-11-21T15:46:11;8.60;99.90
10278;DHT22;5184;51.376;7.148;2023-11-21T15:48:38;8.60;99.90
10278;DHT22;5184;51.376;7.148;2023-11-21T15:51:06;8.60;99.90
10278;DHT22;5184;51.376;7.148;2023-11-21T15:53:32;8.60;99.90
10278;DHT22;5184;51.376;7.148;2023-11-21T15:55:59;8.60;99.90
10278;DHT22;5184;51.376;7.148;2023-11-21T15:58:26;8.50;99.90
10278;DHT22;5184;51.376;7.148;2023-11-21T16:00:52;8.50;99.90
10278;DHT22;5184;51.376;7.148;2023-11-21T16:03:19;8.50;99.90
10278;DHT22;5184;51.376;7.148;2023-11-21T16:05:46;8.40;99.90
10278;DHT22;5184;51.376;7.148;2023-11-21T16:08:13;8.40;99.90
10278;DHT22;5184;51.376;7.148;2023-11-21T16:10:41;8.40;99.90
10278;DHT22;5184;51.376;7.148;2023-11-21T16:13:08;8.50;99.90
10278;DHT22;5184;51.376;7.148;2023-11-21T16:15:36;8.40;99.90
10278;DHT22;5184;51.376;7.148;2023-11-21T16:18:03;8.30;99.90
10278;DHT22;5184;51.376;7.148;2023-11-21T16:20:30;8.20;99.90
10278;DHT22;5184;51.376;7.148;2023-11-21T16:22:56;8.20;99.90
10278;DHT22;5184;51.376;7.148;2023-11-21T16:25:23;8.10;99.90
10278;DHT22;5184;51.376;7.148;2023-11-21T16:27:50;8.00;99.90
10278;DHT22;5184;51.376;7.148;2023-11-21T16:30:17;7.90;99.90
10278;DHT22;5184;51.376;7.148;2023-11-21T16:32:45;7.90;99.90